createdAt,value
2022-10-01T05:44:06.155Z,97707.56
2022-10-01T05:46:33.011Z,97720.63
2022-10-01T05:48:59.590Z,97727.16
2022-10-01T05:51:26.222Z,97725.47
2022-10-01T05:53:59.003Z,97737.28
2022-10-01T05:56:26.149Z,97724.03
2022-10-01T05:58:52.714Z,97734.03
2022-10-01T06:01:19.252Z,97739.75
2022-10-01T06:03:45.801Z,97733.91
2022-10-01T06:06:12.835Z,97717.28
2022-10-01T06:08:39.335Z,97727.75
2022-10-01T06:11:06.365Z,97735.09
2022-10-01T06:13:35.541Z,97750.44
2022-10-01T06:16:02.139Z,97755.25
2022-10-01T06:18:28.735Z,97750.25
2022-10-01T06:20:55.364Z,97746.94
2022-10-01T06:23:21.873Z,97731.88
2022-10-01T06:25:48.410Z,97737.84
2022-10-01T06:28:15.501Z,97740.50
2022-10-01T06:30:42.674Z,97741.38
2022-10-01T06:33:14.734Z,97748.13
2022-10-01T06:35:51.867Z,97762.47
2022-10-01T06:38:22.472Z,97760.59
2022-10-01T06:40:57.395Z,97772.31
2022-10-01T06:43:25.609Z,97770.25
2022-10-01T06:45:52.755Z,97769.28
2022-10-01T06:48:20.270Z,97769.38
2022-10-01T06:50:49.320Z,97769.63
2022-10-01T06:53:17.422Z,97763.66
2022-10-01T06:55:45.170Z,97748.66
2022-10-01T06:58:15.826Z,97761.03
2022-10-01T07:00:43.884Z,97765.81
2022-10-01T07:03:15.894Z,97756.72
2022-10-01T07:05:42.807Z,97759.56
2022-10-01T07:08:09.443Z,97768.25
2022-10-01T07:10:36.205Z,97765.28
2022-10-01T07:13:12.981Z,97774.81
2022-10-01T07:15:40.333Z,97764.16
2022-10-01T07:18:09.537Z,97767.84
2022-10-01T07:20:40.468Z,97770.03
2022-10-01T07:23:10.624Z,97766.06
2022-10-01T07:25:38.930Z,97768.56
2022-10-01T07:28:08.034Z,97782.69
2022-10-01T07:30:34.928Z,97790.28
2022-10-01T07:33:01.534Z,97802.41
2022-10-01T07:35:28.549Z,97790.50
2022-10-01T07:37:55.460Z,97796.66
2022-10-01T07:40:22.025Z,97803.66
2022-10-01T07:42:56.369Z,97802.63
2022-10-01T07:45:24.237Z,97788.44
2022-10-01T07:47:54.976Z,97806.88
2022-10-01T07:50:21.689Z,97813.72
2022-10-01T07:52:56.195Z,97799.03
2022-10-01T07:55:26.472Z,97804.44
2022-10-01T07:57:58.111Z,97803.16
2022-10-01T08:00:26.506Z,97791.16
2022-10-01T08:02:56.093Z,97787.75
2022-10-01T08:05:25.656Z,97773.44
2022-10-01T08:07:52.431Z,97793.03
2022-10-01T08:10:21.116Z,97803.41
2022-10-01T08:12:47.682Z,97796.72
2022-10-01T08:15:16.308Z,97788.72
2022-10-01T08:17:43.483Z,97773.88
2022-10-01T08:20:12.925Z,97825.31
2022-10-01T08:22:42.182Z,97827.44
2022-10-01T08:25:09.876Z,97823.03
2022-10-01T08:27:36.697Z,97857.16
2022-10-01T08:30:03.816Z,97841.16
2022-10-01T08:32:31.251Z,97822.75
2022-10-01T08:34:59.980Z,97819.00
2022-10-01T08:37:28.408Z,97809.31
2022-10-01T08:39:56.511Z,97810.19
2022-10-01T08:42:47.833Z,97791.72
2022-10-01T08:45:21.825Z,97782.91
2022-10-01T08:48:05.767Z,97797.97
2022-10-01T08:50:57.541Z,97845.19
2022-10-01T08:53:33.843Z,97874.63
2022-10-01T08:56:02.440Z,97859.00
2022-10-01T08:58:34.958Z,97865.81
2022-10-01T09:01:01.592Z,97894.84
2022-10-01T09:03:31.598Z,97906.56
2022-10-01T09:06:22.291Z,97933.97
2022-10-01T09:09:36.498Z,97931.97
2022-10-01T09:12:09.030Z,97948.34
2022-10-01T09:14:59.273Z,97948.34
2022-10-01T09:17:53.296Z,97973.66
2022-10-01T09:20:51.774Z,97975.59
2022-10-01T09:23:30.246Z,97968.69
2022-10-01T09:25:59.570Z,97970.22
2022-10-01T09:28:37.741Z,97958.63
2022-10-01T09:31:19.938Z,97959.66
2022-10-01T09:34:02.051Z,97942.00
2022-10-01T09:37:19.456Z,97942.34
2022-10-01T09:40:04.943Z,97927.03
2022-10-01T09:42:31.802Z,97938.69
2022-10-01T09:44:58.966Z,97909.88
2022-10-01T09:47:26.363Z,97887.34
2022-10-01T09:49:52.785Z,97886.78
2022-10-01T09:52:34.604Z,97889.75
2022-10-01T09:55:22.270Z,97875.63
2022-10-01T09:58:05.066Z,97874.72
2022-10-01T10:00:32.495Z,97847.09
2022-10-01T10:02:59.043Z,97854.59
2022-10-01T10:05:30.131Z,97839.59
2022-10-01T10:08:02.430Z,97841.56
2022-10-01T10:10:35.688Z,97820.41
2022-10-01T10:13:39.350Z,97846.28
2022-10-01T10:16:10.644Z,97860.94
2022-10-01T10:18:39.514Z,97882.72
2022-10-01T10:21:19.490Z,97885.53
